Thunder radar more information blitzortung!


Radar de pluja more information rain snow radar


Visita la nostra xarxa de llocs de meteo:

Template documentation
and downloads

And another site



No particular awareness of the weather is required.    There are no Weather-warnings

Pagina Historial Weather Underground text

Diari Resum Juliol 13, 2017 Unitats:  Tant    Imperial   Mètric
« Previous Dia
SegĂźent Dia »
Diari Setmana Mensual Anual Personalitzada
  Maxima: Minima: Media:
Temperatura: TemperatureC °F /  -17.8 °C 21.3 °F /  -5.9 °C 27.4 °F /  -2.6 °C
Punt de rosada: DewpointC °F /  -17.8 °C 18.7 °F /  -7.4 °C 20 °F /  -6.7 °C
Humitat: Humidity % 52 % 65 %
Wind Speed: WindSpeedKMH mph /  0 km/h - 8 mph /  12.9 km/h
RĂ fegues de vent: WindSpeedGustKMH mph /  0 km/h - -
Vent:- - South
Pression baro: PressurehPa in /  0 hPa 1012.8 in /  34293.4 hPa -
Precipitacions: 0.0 in /  0 mm    
Historical Graphs
 
 
Dades de taula per Juliol 13, 2017
Temps Temperatura Punt de rosada Pression baro Vent Wind Speed RĂ fegues de vent Humitat Rainfall Rate (Hourly)
TemperatureC °F /  -17.8 °C DewpointC °F /  -17.8 °C PressurehPa in /  0 hPa Calm     Humidity % HourlyPrecipMM in /  0 mm
00:03 24.1 °F /  -4.4 °C 19.6 °F /  -6.9 °C 1017.8 in /  34462.7 hPa NE 3.9 mph /  6.3 km/h 3.9 mph /  6.3 km/h 76 % 0.0 in /  0 mm
00:05 22.0 °F /  -5.6 °C 19.2 °F /  -7.1 °C 1017.8 in /  34462.7 hPa Calm     84 % 0.0 in /  0 mm
00:15 22.0 °F /  -5.6 °C 19.2 °F /  -7.1 °C 1017.8 in /  34462.7 hPa Calm     84 % 0.0 in /  0 mm
00:25 22.0 °F /  -5.6 °C 19.3 °F /  -7.1 °C 1017.8 in /  34462.7 hPa Calm     85 % 0.0 in /  0 mm
00:35 21.9 °F /  -5.6 °C 19.3 °F /  -7.1 °C 1017.8 in /  34462.7 hPa Calm     85 % 0.0 in /  0 mm
00:45 21.7 °F /  -5.7 °C 19.1 °F /  -7.2 °C 1017.8 in /  34462.7 hPa Calm     85 % 0.0 in /  0 mm
00:55 21.5 °F /  -5.8 °C 18.9 °F /  -7.3 °C 1017.8 in /  34462.7 hPa Calm   1.6 mph /  2.6 km/h 85 % 0.0 in /  0 mm
01:05 21.4 °F /  -5.9 °C 18.8 °F /  -7.3 °C 1017.8 in /  34462.7 hPa West 3.2 mph /  5.1 km/h 3.2 mph /  5.1 km/h 85 % 0.0 in /  0 mm
01:15 21.3 °F /  -5.9 °C 18.7 °F /  -7.4 °C 1017.8 in /  34462.7 hPa WSW 1.6 mph /  2.6 km/h 3.2 mph /  5.1 km/h 85 % 0.0 in /  0 mm
01:25 21.3 °F /  -5.9 °C 18.9 °F /  -7.3 °C 1017.8 in /  34462.7 hPa SW 1.6 mph /  2.6 km/h 3.2 mph /  5.1 km/h 86 % 0.0 in /  0 mm
01:35 21.3 °F /  -5.9 °C 18.9 °F /  -7.3 °C 1017.8 in /  34462.7 hPa Calm   3.2 mph /  5.1 km/h 86 % 0.0 in /  0 mm
01:45 21.4 °F /  -5.9 °C 18.9 °F /  -7.3 °C 1016.8 in /  34428.8 hPa Calm   1.6 mph /  2.6 km/h 86 % 0.0 in /  0 mm
01:55 21.4 °F /  -5.9 °C 19.2 °F /  -7.1 °C 1016.8 in /  34428.8 hPa Calm     87 % 0.0 in /  0 mm
02:05 21.3 °F /  -5.9 °C 18.9 °F /  -7.3 °C 1017.8 in /  34462.7 hPa North 1.6 mph /  2.6 km/h 3.2 mph /  5.1 km/h 86 % 0.0 in /  0 mm
02:15 21.5 °F /  -5.8 °C 19.1 °F /  -7.2 °C 1016.8 in /  34428.8 hPa NE 1.6 mph /  2.6 km/h 1.6 mph /  2.6 km/h 86 % 0.0 in /  0 mm
02:25 21.8 °F /  -5.7 °C 19.2 °F /  -7.1 °C 1016.8 in /  34428.8 hPa NE 3.2 mph /  5.1 km/h 4.8 mph /  7.7 km/h 85 % 0.0 in /  0 mm
02:35 21.9 °F /  -5.6 °C 19.3 °F /  -7.1 °C 1017.8 in /  34462.7 hPa NE 1.6 mph /  2.6 km/h 3.2 mph /  5.1 km/h 85 % 0.0 in /  0 mm
02:45 21.9 °F /  -5.6 °C 19.1 °F /  -7.2 °C 1017.8 in /  34462.7 hPa ENE 3.2 mph /  5.1 km/h 4.8 mph /  7.7 km/h 84 % 0.0 in /  0 mm
02:55 21.9 °F /  -5.6 °C 19.1 °F /  -7.2 °C 1017.8 in /  34462.7 hPa ENE 1.6 mph /  2.6 km/h 3.2 mph /  5.1 km/h 84 % 0.0 in /  0 mm
03:05 22.0 °F /  -5.6 °C 19.2 °F /  -7.1 °C 1017.8 in /  34462.7 hPa Calm   3.2 mph /  5.1 km/h 84 % 0.0 in /  0 mm
03:15 22.1 °F /  -5.5 °C 19.1 °F /  -7.2 °C 1016.8 in /  34428.8 hPa SW 3.2 mph /  5.1 km/h 4.8 mph /  7.7 km/h 83 % 0.0 in /  0 mm
03:25 22.1 °F /  -5.5 °C 19.3 °F /  -7.1 °C 1016.8 in /  34428.8 hPa SW 1.6 mph /  2.6 km/h 3.2 mph /  5.1 km/h 84 % 0.0 in /  0 mm
03:35 22.2 °F /  -5.4 °C 19.4 °F /  -7 °C 1017.8 in /  34462.7 hPa SW 1.6 mph /  2.6 km/h 3.2 mph /  5.1 km/h 84 % 0.0 in /  0 mm
03:45 22.6 °F /  -5.2 °C 19.6 °F /  -6.9 °C 1017.8 in /  34462.7 hPa SW 1.6 mph /  2.6 km/h 3.2 mph /  5.1 km/h 83 % 0.0 in /  0 mm
03:55 23.0 °F /  -5 °C 19.8 °F /  -6.8 °C 1017.8 in /  34462.7 hPa SW 1.6 mph /  2.6 km/h 3.2 mph /  5.1 km/h 82 % 0.0 in /  0 mm
04:05 23.5 °F /  -4.7 °C 20.2 °F /  -6.6 °C 1017.8 in /  34462.7 hPa SW 1.6 mph /  2.6 km/h 3.2 mph /  5.1 km/h 82 % 0.0 in /  0 mm
04:15 23.8 °F /  -4.6 °C 20.3 °F /  -6.5 °C 1017.8 in /  34462.7 hPa SW 1.6 mph /  2.6 km/h 3.2 mph /  5.1 km/h 81 % 0.0 in /  0 mm
04:25 24.4 °F /  -4.2 °C 20.7 °F /  -6.3 °C 1017.8 in /  34462.7 hPa SW 1.6 mph /  2.6 km/h 3.2 mph /  5.1 km/h 80 % 0.0 in /  0 mm
04:35 25.1 °F /  -3.8 °C 21.0 °F /  -6.1 °C 1017.8 in /  34462.7 hPa SSW 4.8 mph /  7.7 km/h 4.8 mph /  7.7 km/h 78 % 0.0 in /  0 mm
04:45 26.1 °F /  -3.3 °C 21.6 °F /  -5.8 °C 1017.8 in /  34462.7 hPa SW 3.2 mph /  5.1 km/h 4.8 mph /  7.7 km/h 76 % 0.0 in /  0 mm
04:55 26.6 °F /  -3 °C 21.6 °F /  -5.8 °C 1017.8 in /  34462.7 hPa SW 4.8 mph /  7.7 km/h 9.7 mph /  15.6 km/h 74 % 0.0 in /  0 mm
05:05 26.6 °F /  -3 °C 21.3 °F /  -5.9 °C 1017.8 in /  34462.7 hPa SSW 4.8 mph /  7.7 km/h 8.0 mph /  12.9 km/h 73 % 0.0 in /  0 mm
05:15 26.8 °F /  -2.9 °C 21.1 °F /  -6.1 °C 1017.8 in /  34462.7 hPa SW 4.8 mph /  7.7 km/h 6.4 mph /  10.3 km/h 71 % 0.0 in /  0 mm
05:25 27.1 °F /  -2.7 °C 20.9 °F /  -6.2 °C 1017.8 in /  34462.7 hPa SW 4.8 mph /  7.7 km/h 6.4 mph /  10.3 km/h 69 % 0.0 in /  0 mm
05:35 27.4 °F /  -2.6 °C 20.7 °F /  -6.3 °C 1017.8 in /  34462.7 hPa SW 4.8 mph /  7.7 km/h 9.7 mph /  15.6 km/h 67 % 0.0 in /  0 mm
05:45 28.1 °F /  -2.2 °C 20.9 °F /  -6.2 °C 1017.8 in /  34462.7 hPa SW 4.8 mph /  7.7 km/h 12.9 mph /  20.8 km/h 65 % 0.0 in /  0 mm
05:55 27.9 °F /  -2.3 °C 20.4 °F /  -6.4 °C 1017.8 in /  34462.7 hPa SW 4.8 mph /  7.7 km/h 12.9 mph /  20.8 km/h 64 % 0.0 in /  0 mm
06:05 28.2 °F /  -2.1 °C 20.2 °F /  -6.6 °C 1017.8 in /  34462.7 hPa WSW 11.3 mph /  18.2 km/h 12.9 mph /  20.8 km/h 62 % 0.0 in /  0 mm
06:15 28.8 °F /  -1.8 °C 20.6 °F /  -6.3 °C 1016.8 in /  34428.8 hPa WSW 9.7 mph /  15.6 km/h 9.7 mph /  15.6 km/h 61 % 0.0 in /  0 mm
06:25 29.3 °F /  -1.5 °C 20.4 °F /  -6.4 °C 1016.8 in /  34428.8 hPa SW 8.0 mph /  12.9 km/h 12.9 mph /  20.8 km/h 59 % 0.0 in /  0 mm
06:35 29.7 °F /  -1.3 °C 20.8 °F /  -6.2 °C 1017.8 in /  34462.7 hPa WSW 4.8 mph /  7.7 km/h 11.3 mph /  18.2 km/h 59 % 0.0 in /  0 mm
06:45 29.1 °F /  -1.6 °C 20.0 °F /  -6.7 °C 1017.8 in /  34462.7 hPa SW 4.8 mph /  7.7 km/h 9.7 mph /  15.6 km/h 58 % 0.0 in /  0 mm
06:55 29.7 °F /  -1.3 °C 20.3 °F /  -6.5 °C 1017.8 in /  34462.7 hPa SW 11.3 mph /  18.2 km/h 19.3 mph /  31.1 km/h 57 % 0.0 in /  0 mm
07:05 30.0 °F /  -1.1 °C 20.6 °F /  -6.3 °C 1017.8 in /  34462.7 hPa SW 4.8 mph /  7.7 km/h 9.7 mph /  15.6 km/h 57 % 0.0 in /  0 mm
07:15 30.4 °F /  -0.9 °C 20.9 °F /  -6.2 °C 1017.8 in /  34462.7 hPa SW 8.0 mph /  12.9 km/h 11.3 mph /  18.2 km/h 57 % 0.0 in /  0 mm
12:22 30.3 °F /  -0.9 °C 20.6 °F /  -6.3 °C 1017.8 in /  34462.7 hPa SW 9.3 mph /  15 km/h 9.3 mph /  15 km/h 56 % 0.0 in /  0 mm
12:27 30.7 °F /  -0.7 °C 20.6 °F /  -6.3 °C 1017.8 in /  34462.7 hPa SW 9.3 mph /  15 km/h 9.3 mph /  15 km/h 55 % 0.0 in /  0 mm
12:32 30.4 °F /  -0.9 °C 20.3 °F /  -6.5 °C 1017.8 in /  34462.7 hPa WSW 9.7 mph /  15.6 km/h 10.8 mph /  17.4 km/h 55 % 0.0 in /  0 mm
12:37 30.5 °F /  -0.8 °C 20.4 °F /  -6.4 °C 1017.8 in /  34462.7 hPa SSW 11.1 mph /  17.9 km/h 11.1 mph /  17.9 km/h 55 % 0.0 in /  0 mm
12:42 30.5 °F /  -0.8 °C 20.4 °F /  -6.4 °C 1017.8 in /  34462.7 hPa South 20.4 mph /  32.8 km/h 20.4 mph /  32.8 km/h 55 % 0.0 in /  0 mm
12:47 30.4 °F /  -0.9 °C 20.3 °F /  -6.5 °C 1017.8 in /  34462.7 hPa SW 9.5 mph /  15.3 km/h 9.5 mph /  15.3 km/h 55 % 0.0 in /  0 mm
12:52 30.1 °F /  -1.1 °C 20.1 °F /  -6.6 °C 1017.8 in /  34462.7 hPa SW 18.5 mph /  29.8 km/h 18.5 mph /  29.8 km/h 55 % 0.0 in /  0 mm
12:57 29.9 °F /  -1.2 °C 20.2 °F /  -6.6 °C 1017.8 in /  34462.7 hPa SW 13.0 mph /  20.9 km/h 13.0 mph /  20.9 km/h 56 % 0.0 in /  0 mm
13:02 30.2 °F /  -1 °C 20.2 °F /  -6.6 °C 1017.8 in /  34462.7 hPa WSW 14.8 mph /  23.8 km/h 14.8 mph /  23.8 km/h 55 % 0.0 in /  0 mm
13:07 30.4 °F /  -0.9 °C 20.3 °F /  -6.5 °C 1017.8 in /  34462.7 hPa SW 17.2 mph /  27.7 km/h 17.2 mph /  27.7 km/h 55 % 0.0 in /  0 mm
13:12 29.9 °F /  -1.2 °C 20.2 °F /  -6.6 °C 1016.8 in /  34428.8 hPa WSW 16.7 mph /  26.9 km/h 16.7 mph /  26.9 km/h 56 % 0.0 in /  0 mm
13:17 30.0 °F /  -1.1 °C 20.3 °F /  -6.5 °C 1016.8 in /  34428.8 hPa South 13.0 mph /  20.9 km/h 13.0 mph /  20.9 km/h 56 % 0.0 in /  0 mm
13:22 29.9 °F /  -1.2 °C 20.2 °F /  -6.6 °C 1016.8 in /  34428.8 hPa SW 14.8 mph /  23.8 km/h 14.8 mph /  23.8 km/h 56 % 0.0 in /  0 mm
13:27 30.2 °F /  -1 °C 20.4 °F /  -6.4 °C 1016.8 in /  34428.8 hPa SW 11.1 mph /  17.9 km/h 11.1 mph /  17.9 km/h 56 % 0.0 in /  0 mm
13:32 30.0 °F /  -1.1 °C 20.3 °F /  -6.5 °C 1016.8 in /  34428.8 hPa SSW 9.3 mph /  15 km/h 9.3 mph /  15 km/h 56 % 0.0 in /  0 mm
13:37 29.9 °F /  -1.2 °C 20.2 °F /  -6.6 °C 1016.8 in /  34428.8 hPa SW 16.7 mph /  26.9 km/h 16.7 mph /  26.9 km/h 56 % 0.0 in /  0 mm
13:42 29.9 °F /  -1.2 °C 20.2 °F /  -6.6 °C 1015.8 in /  34395 hPa WSW 13.0 mph /  20.9 km/h 13.0 mph /  20.9 km/h 56 % 0.0 in /  0 mm
13:47 30.3 °F /  -0.9 °C 20.3 °F /  -6.5 °C 1015.8 in /  34395 hPa SW 14.0 mph /  22.5 km/h 14.0 mph /  22.5 km/h 55 % 0.0 in /  0 mm
13:52 30.1 °F /  -1.1 °C 20.1 °F /  -6.6 °C 1015.8 in /  34395 hPa South 13.0 mph /  20.9 km/h 13.0 mph /  20.9 km/h 55 % 0.0 in /  0 mm
13:57 30.0 °F /  -1.1 °C 20.0 °F /  -6.7 °C 1015.8 in /  34395 hPa SW 14.8 mph /  23.8 km/h 14.8 mph /  23.8 km/h 55 % 0.0 in /  0 mm
14:02 30.1 °F /  -1.1 °C 20.1 °F /  -6.6 °C 1015.8 in /  34395 hPa WSW 11.9 mph /  19.2 km/h 11.9 mph /  19.2 km/h 55 % 0.0 in /  0 mm
14:07 30.3 °F /  -0.9 °C 20.3 °F /  -6.5 °C 1015.8 in /  34395 hPa SSW 9.3 mph /  15 km/h 9.3 mph /  15 km/h 55 % 0.0 in /  0 mm
14:12 29.8 °F /  -1.2 °C 20.1 °F /  -6.6 °C 1015.8 in /  34395 hPa West 16.7 mph /  26.9 km/h 16.7 mph /  26.9 km/h 56 % 0.0 in /  0 mm
14:17 30.0 °F /  -1.1 °C 20.0 °F /  -6.7 °C 1015.8 in /  34395 hPa SW 14.8 mph /  23.8 km/h 14.8 mph /  23.8 km/h 55 % 0.0 in /  0 mm
14:22 30.3 °F /  -0.9 °C 20.3 °F /  -6.5 °C 1015.8 in /  34395 hPa SSW 5.6 mph /  9 km/h 6.1 mph /  9.8 km/h 55 % 0.0 in /  0 mm
14:27 30.8 °F /  -0.7 °C 20.7 °F /  -6.3 °C 1015.8 in /  34395 hPa SW 16.7 mph /  26.9 km/h 16.7 mph /  26.9 km/h 55 % 0.0 in /  0 mm
14:32 30.6 °F /  -0.8 °C 20.6 °F /  -6.3 °C 1015.8 in /  34395 hPa ESE 22.2 mph /  35.7 km/h 22.2 mph /  35.7 km/h 55 % 0.0 in /  0 mm
14:37 30.1 °F /  -1.1 °C 20.1 °F /  -6.6 °C 1015.8 in /  34395 hPa SW 20.4 mph /  32.8 km/h 20.4 mph /  32.8 km/h 55 % 0.0 in /  0 mm
14:42 30.1 °F /  -1.1 °C 20.1 °F /  -6.6 °C 1015.8 in /  34395 hPa SW 18.5 mph /  29.8 km/h 18.5 mph /  29.8 km/h 55 % 0.0 in /  0 mm
14:47 29.7 °F /  -1.3 °C 20.0 °F /  -6.7 °C 1015.8 in /  34395 hPa South 13.0 mph /  20.9 km/h 13.0 mph /  20.9 km/h 56 % 0.0 in /  0 mm
14:52 29.7 °F /  -1.3 °C 20.0 °F /  -6.7 °C 1015.8 in /  34395 hPa SW 14.8 mph /  23.8 km/h 14.8 mph /  23.8 km/h 56 % 0.0 in /  0 mm
14:57 29.9 °F /  -1.2 °C 20.2 °F /  -6.6 °C 1014.8 in /  34361.1 hPa SW 16.7 mph /  26.9 km/h 16.7 mph /  26.9 km/h 56 % 0.0 in /  0 mm
15:02 30.3 °F /  -0.9 °C 20.6 °F /  -6.3 °C 1014.8 in /  34361.1 hPa SW 9.3 mph /  15 km/h 9.3 mph /  15 km/h 56 % 0.0 in /  0 mm
15:07 30.1 °F /  -1.1 °C 20.3 °F /  -6.5 °C 1014.8 in /  34361.1 hPa SW 13.0 mph /  20.9 km/h 13.0 mph /  20.9 km/h 56 % 0.0 in /  0 mm
15:12 30.2 °F /  -1 °C 20.4 °F /  -6.4 °C 1014.8 in /  34361.1 hPa South 14.8 mph /  23.8 km/h 14.8 mph /  23.8 km/h 56 % 0.0 in /  0 mm
15:17 30.5 °F /  -0.8 °C 20.7 °F /  -6.3 °C 1014.8 in /  34361.1 hPa WSW 9.3 mph /  15 km/h 9.3 mph /  15 km/h 56 % 0.0 in /  0 mm
15:22 30.9 °F /  -0.6 °C 20.8 °F /  -6.2 °C 1015.8 in /  34395 hPa SSW 13.0 mph /  20.9 km/h 13.0 mph /  20.9 km/h 55 % 0.0 in /  0 mm
15:27 30.3 °F /  -0.9 °C 20.3 °F /  -6.5 °C 1015.8 in /  34395 hPa South 13.0 mph /  20.9 km/h 13.0 mph /  20.9 km/h 55 % 0.0 in /  0 mm
15:32 30.7 °F /  -0.7 °C 20.6 °F /  -6.3 °C 1015.8 in /  34395 hPa SW 13.0 mph /  20.9 km/h 13.0 mph /  20.9 km/h 55 % 0.0 in /  0 mm
15:37 31.0 °F /  -0.6 °C 20.6 °F /  -6.3 °C 1015.8 in /  34395 hPa South 16.7 mph /  26.9 km/h 16.7 mph /  26.9 km/h 54 % 0.0 in /  0 mm
15:42 30.7 °F /  -0.7 °C 20.6 °F /  -6.3 °C 1015.8 in /  34395 hPa SSW 11.1 mph /  17.9 km/h 11.1 mph /  17.9 km/h 55 % 0.0 in /  0 mm
15:44 30.7 °F /  -0.7 °C 20.6 °F /  -6.3 °C 1015.8 in /  34395 hPa South 15.8 mph /  25.4 km/h 15.8 mph /  25.4 km/h 55 % 0.0 in /  0 mm
15:49 30.5 °F /  -0.8 °C 20.4 °F /  -6.4 °C 1015.8 in /  34395 hPa SW 16.7 mph /  26.9 km/h 16.7 mph /  26.9 km/h 55 % 0.0 in /  0 mm
15:54 30.9 °F /  -0.6 °C 20.8 °F /  -6.2 °C 1015.8 in /  34395 hPa SW 10.0 mph /  16.1 km/h 10.0 mph /  16.1 km/h 55 % 0.0 in /  0 mm
15:59 31.4 °F /  -0.3 °C 21.0 °F /  -6.1 °C 1015.8 in /  34395 hPa WSW 11.1 mph /  17.9 km/h 11.1 mph /  17.9 km/h 54 % 0.0 in /  0 mm
16:04 30.7 °F /  -0.7 °C 20.3 °F /  -6.5 °C 1015.8 in /  34395 hPa SSW 20.4 mph /  32.8 km/h 20.4 mph /  32.8 km/h 54 % 0.0 in /  0 mm
16:09 30.3 °F /  -0.9 °C 20.3 °F /  -6.5 °C 1014.8 in /  34361.1 hPa SW 14.8 mph /  23.8 km/h 14.8 mph /  23.8 km/h 55 % 0.0 in /  0 mm
16:14 30.3 °F /  -0.9 °C 20.3 °F /  -6.5 °C 1014.8 in /  34361.1 hPa SW 14.8 mph /  23.8 km/h 14.8 mph /  23.8 km/h 55 % 0.0 in /  0 mm
16:19 30.6 °F /  -0.8 °C 20.6 °F /  -6.3 °C 1014.8 in /  34361.1 hPa SSE 14.8 mph /  23.8 km/h 14.8 mph /  23.8 km/h 55 % 0.0 in /  0 mm
16:24 30.8 °F /  -0.7 °C 20.7 °F /  -6.3 °C 1014.8 in /  34361.1 hPa SSW 17.2 mph /  27.7 km/h 17.2 mph /  27.7 km/h 55 % 0.0 in /  0 mm
16:29 30.3 °F /  -0.9 °C 20.3 °F /  -6.5 °C 1014.8 in /  34361.1 hPa South 9.3 mph /  15 km/h 9.3 mph /  15 km/h 55 % 0.0 in /  0 mm
16:34 31.1 °F /  -0.5 °C 20.7 °F /  -6.3 °C 1014.8 in /  34361.1 hPa SW 6.9 mph /  11.1 km/h 6.9 mph /  11.1 km/h 54 % 0.0 in /  0 mm
16:39 31.4 °F /  -0.3 °C 21.0 °F /  -6.1 °C 1014.8 in /  34361.1 hPa SW 16.1 mph /  25.9 km/h 16.1 mph /  25.9 km/h 54 % 0.0 in /  0 mm
16:44 31.1 °F /  -0.5 °C 20.7 °F /  -6.3 °C 1014.8 in /  34361.1 hPa South 9.3 mph /  15 km/h 9.3 mph /  15 km/h 54 % 0.0 in /  0 mm
16:49 31.4 °F /  -0.3 °C 20.7 °F /  -6.3 °C 1014.8 in /  34361.1 hPa SW 7.4 mph /  11.9 km/h 7.4 mph /  11.9 km/h 53 % 0.0 in /  0 mm
16:54 31.3 °F /  -0.4 °C 20.6 °F /  -6.3 °C 1014.8 in /  34361.1 hPa SSW 10.3 mph /  16.6 km/h 10.3 mph /  16.6 km/h 53 % 0.0 in /  0 mm
16:59 31.5 °F /  -0.3 °C 20.8 °F /  -6.2 °C 1014.8 in /  34361.1 hPa West 7.4 mph /  11.9 km/h 7.4 mph /  11.9 km/h 53 % 0.0 in /  0 mm
17:04 31.7 °F /  -0.2 °C 20.9 °F /  -6.2 °C 1014.8 in /  34361.1 hPa West 11.1 mph /  17.9 km/h 11.1 mph /  17.9 km/h 53 % 0.0 in /  0 mm
17:09 31.8 °F /  -0.1 °C 20.7 °F /  -6.3 °C 1013.8 in /  34327.3 hPa SSE 9.3 mph /  15 km/h 9.3 mph /  15 km/h 52 % 0.0 in /  0 mm
17:14 31.2 °F /  -0.4 °C 20.2 °F /  -6.6 °C 1013.8 in /  34327.3 hPa SW 9.3 mph /  15 km/h 9.3 mph /  15 km/h 52 % 0.0 in /  0 mm
17:19 31.6 °F /  -0.2 °C 20.8 °F /  -6.2 °C 1013.8 in /  34327.3 hPa SW 9.7 mph /  15.6 km/h 9.7 mph /  15.6 km/h 53 % 0.0 in /  0 mm
17:24 31.7 °F /  -0.2 °C 20.6 °F /  -6.3 °C 1013.8 in /  34327.3 hPa SSW 11.1 mph /  17.9 km/h 11.1 mph /  17.9 km/h 52 % 0.0 in /  0 mm
17:29 31.8 °F /  -0.1 °C 20.7 °F /  -6.3 °C 1013.8 in /  34327.3 hPa South 9.5 mph /  15.3 km/h 9.5 mph /  15.3 km/h 52 % 0.0 in /  0 mm
17:34 32.1 °F /  0.1 °C 21.3 °F /  -5.9 °C 1013.8 in /  34327.3 hPa SW 13.0 mph /  20.9 km/h 13.0 mph /  20.9 km/h 53 % 0.0 in /  0 mm
17:39 31.9 °F /  -0.1 °C 20.8 °F /  -6.2 °C 1013.8 in /  34327.3 hPa SSW 13.0 mph /  20.9 km/h 13.0 mph /  20.9 km/h 52 % 0.0 in /  0 mm
17:44 31.8 °F /  -0.1 °C 20.7 °F /  -6.3 °C 1013.8 in /  34327.3 hPa WSW 12.2 mph /  19.6 km/h 12.2 mph /  19.6 km/h 52 % 0.0 in /  0 mm
17:49 31.8 °F /  -0.1 °C 20.7 °F /  -6.3 °C 1013.8 in /  34327.3 hPa SW 7.4 mph /  11.9 km/h 7.4 mph /  11.9 km/h 52 % 0.0 in /  0 mm
17:54 31.9 °F /  -0.1 °C 20.8 °F /  -6.2 °C 1013.8 in /  34327.3 hPa NNE 13.0 mph /  20.9 km/h 13.0 mph /  20.9 km/h 52 % 0.0 in /  0 mm
17:59 31.8 °F /  -0.1 °C 20.7 °F /  -6.3 °C 1013.8 in /  34327.3 hPa SW 3.7 mph /  6 km/h 3.7 mph /  6 km/h 52 % 0.0 in /  0 mm
18:04 31.4 °F /  -0.3 °C 20.3 °F /  -6.5 °C 1013.8 in /  34327.3 hPa South 9.3 mph /  15 km/h 9.3 mph /  15 km/h 52 % 0.0 in /  0 mm
18:09 31.5 °F /  -0.3 °C 20.8 °F /  -6.2 °C 1013.8 in /  34327.3 hPa SSW 9.3 mph /  15 km/h 9.3 mph /  15 km/h 53 % 0.0 in /  0 mm
18:14 31.4 °F /  -0.3 °C 20.7 °F /  -6.3 °C 1013.8 in /  34327.3 hPa SSW 7.4 mph /  11.9 km/h 7.4 mph /  11.9 km/h 53 % 0.0 in /  0 mm
18:19 31.3 °F /  -0.4 °C 20.6 °F /  -6.3 °C 1013.8 in /  34327.3 hPa SSW 5.6 mph /  9 km/h 5.8 mph /  9.3 km/h 53 % 0.0 in /  0 mm
18:24 31.0 °F /  -0.6 °C 20.3 °F /  -6.5 °C 1013.8 in /  34327.3 hPa SW 13.0 mph /  20.9 km/h 13.0 mph /  20.9 km/h 53 % 0.0 in /  0 mm
18:29 31.0 °F /  -0.6 °C 20.3 °F /  -6.5 °C 1013.8 in /  34327.3 hPa SSE 11.1 mph /  17.9 km/h 11.1 mph /  17.9 km/h 53 % 0.0 in /  0 mm
18:34 31.3 °F /  -0.4 °C 20.3 °F /  -6.5 °C 1013.8 in /  34327.3 hPa South 7.4 mph /  11.9 km/h 7.4 mph /  11.9 km/h 52 % 0.0 in /  0 mm
18:35 31.2 °F /  -0.4 °C 20.2 °F /  -6.6 °C 1013.8 in /  34327.3 hPa SW 11.9 mph /  19.2 km/h 11.9 mph /  19.2 km/h 52 % 0.0 in /  0 mm
18:40 30.9 °F /  -0.6 °C 20.2 °F /  -6.6 °C 1013.8 in /  34327.3 hPa SW 9.3 mph /  15 km/h 9.3 mph /  15 km/h 53 % 0.0 in /  0 mm
18:45 30.7 °F /  -0.7 °C 20.0 °F /  -6.7 °C 1013.8 in /  34327.3 hPa ESE 7.4 mph /  11.9 km/h 7.4 mph /  11.9 km/h 53 % 0.0 in /  0 mm
18:50 30.6 °F /  -0.8 °C 19.9 °F /  -6.7 °C 1013.8 in /  34327.3 hPa SW 11.1 mph /  17.9 km/h 11.1 mph /  17.9 km/h 53 % 0.0 in /  0 mm
18:55 30.4 °F /  -0.9 °C 19.4 °F /  -7 °C 1013.8 in /  34327.3 hPa SW 9.5 mph /  15.3 km/h 9.5 mph /  15.3 km/h 52 % 0.0 in /  0 mm
19:00 30.1 °F /  -1.1 °C 19.2 °F /  -7.1 °C 1013.8 in /  34327.3 hPa South 11.1 mph /  17.9 km/h 11.1 mph /  17.9 km/h 52 % 0.0 in /  0 mm
19:05 30.1 °F /  -1.1 °C 19.4 °F /  -7 °C 1013.8 in /  34327.3 hPa SW 9.3 mph /  15 km/h 9.3 mph /  15 km/h 53 % 0.0 in /  0 mm
19:10 30.3 °F /  -0.9 °C 19.7 °F /  -6.8 °C 1013.8 in /  34327.3 hPa SSW 13.7 mph /  22 km/h 13.7 mph /  22 km/h 53 % 0.0 in /  0 mm
19:15 30.3 °F /  -0.9 °C 19.7 °F /  -6.8 °C 1013.8 in /  34327.3 hPa SW 5.8 mph /  9.3 km/h 5.8 mph /  9.3 km/h 53 % 0.0 in /  0 mm
19:20 30.3 °F /  -0.9 °C 19.7 °F /  -6.8 °C 1013.8 in /  34327.3 hPa SW 6.9 mph /  11.1 km/h 6.9 mph /  11.1 km/h 53 % 0.0 in /  0 mm
19:25 30.4 °F /  -0.9 °C 19.7 °F /  -6.8 °C 1013.8 in /  34327.3 hPa WSW 9.3 mph /  15 km/h 9.3 mph /  15 km/h 53 % 0.0 in /  0 mm
19:30 30.3 °F /  -0.9 °C 19.7 °F /  -6.8 °C 1013.8 in /  34327.3 hPa WSW 9.3 mph /  15 km/h 9.3 mph /  15 km/h 53 % 0.0 in /  0 mm
19:35 29.9 °F /  -1.2 °C 19.6 °F /  -6.9 °C 1013.8 in /  34327.3 hPa West 9.3 mph /  15 km/h 9.3 mph /  15 km/h 54 % 0.0 in /  0 mm
19:40 29.8 °F /  -1.2 °C 19.5 °F /  -6.9 °C 1012.8 in /  34293.4 hPa SSW 7.4 mph /  11.9 km/h 7.4 mph /  11.9 km/h 54 % 0.0 in /  0 mm
19:41 29.8 °F /  -1.2 °C 19.5 °F /  -6.9 °C 1012.8 in /  34293.4 hPa SSW 10.3 mph /  16.6 km/h 10.3 mph /  16.6 km/h 54 % 0.0 in /  0 mm
19:45 24.4 °F /  -4.2 °C 20.7 °F /  -6.3 °C 1015.8 in /  34395 hPa ESE 4.8 mph /  7.7 km/h 8.0 mph /  12.9 km/h 80 % 0.0 in /  0 mm
19:46 29.5 °F /  -1.4 °C 19.2 °F /  -7.1 °C 1012.8 in /  34293.4 hPa SSW 9.3 mph /  15 km/h 9.3 mph /  15 km/h 54 % 0.0 in /  0 mm
19:51 29.4 °F /  -1.4 °C 19.1 °F /  -7.2 °C 1012.8 in /  34293.4 hPa SSW 9.5 mph /  15.3 km/h 9.5 mph /  15.3 km/h 54 % 0.0 in /  0 mm
19:55 24.3 °F /  -4.3 °C 20.6 °F /  -6.3 °C 1015.8 in /  34395 hPa East 3.2 mph /  5.1 km/h 6.4 mph /  10.3 km/h 80 % 0.0 in /  0 mm
19:56 29.3 °F /  -1.5 °C 19.1 °F /  -7.2 °C 1014.8 in /  34361.1 hPa WSW 9.3 mph /  15 km/h 9.3 mph /  15 km/h 54 % 0.0 in /  0 mm
20:01 29.2 °F /  -1.6 °C 18.9 °F /  -7.3 °C 1014.8 in /  34361.1 hPa SW 9.7 mph /  15.6 km/h 9.7 mph /  15.6 km/h 54 % 0.0 in /  0 mm
20:06 29.1 °F /  -1.6 °C 18.8 °F /  -7.3 °C 1014.8 in /  34361.1 hPa SSE 7.4 mph /  11.9 km/h 7.4 mph /  11.9 km/h 54 % 0.0 in /  0 mm
20:11 29.0 °F /  -1.7 °C 18.8 °F /  -7.3 °C 1013.8 in /  34327.3 hPa SW 7.4 mph /  11.9 km/h 7.4 mph /  11.9 km/h 54 % 0.0 in /  0 mm
20:15 24.4 °F /  -4.2 °C 20.9 °F /  -6.2 °C 1015.8 in /  34395 hPa East 4.8 mph /  7.7 km/h 8.0 mph /  12.9 km/h 81 % 0.0 in /  0 mm
20:16 28.8 °F /  -1.8 °C 18.8 °F /  -7.3 °C 1013.8 in /  34327.3 hPa SW 7.4 mph /  11.9 km/h 7.4 mph /  11.9 km/h 55 % 0.0 in /  0 mm
20:21 28.9 °F /  -1.7 °C 18.9 °F /  -7.3 °C 1013.8 in /  34327.3 hPa SW 9.3 mph /  15 km/h 9.3 mph /  15 km/h 55 % 0.0 in /  0 mm
20:25 24.3 °F /  -4.3 °C 20.8 °F /  -6.2 °C 1015.8 in /  34395 hPa East 3.2 mph /  5.1 km/h 6.4 mph /  10.3 km/h 81 % 0.0 in /  0 mm
20:26 28.7 °F /  -1.8 °C 19.1 °F /  -7.2 °C 1013.8 in /  34327.3 hPa WSW 3.9 mph /  6.3 km/h 3.9 mph /  6.3 km/h 56 % 0.0 in /  0 mm
20:31 28.7 °F /  -1.8 °C 19.1 °F /  -7.2 °C 1013.8 in /  34327.3 hPa WSW 4.2 mph /  6.8 km/h 4.2 mph /  6.8 km/h 56 % 0.0 in /  0 mm
20:35 24.4 °F /  -4.2 °C 20.7 °F /  -6.3 °C 1015.8 in /  34395 hPa East 1.6 mph /  2.6 km/h 3.2 mph /  5.1 km/h 80 % 0.0 in /  0 mm
20:36 28.4 °F /  -2 °C 18.8 °F /  -7.3 °C 1013.8 in /  34327.3 hPa SW 5.3 mph /  8.5 km/h 5.3 mph /  8.5 km/h 56 % 0.0 in /  0 mm
20:41 28.3 °F /  -2.1 °C 18.7 °F /  -7.4 °C 1012.8 in /  34293.4 hPa South 5.6 mph /  9 km/h 5.6 mph /  9 km/h 56 % 0.0 in /  0 mm
20:45 24.4 °F /  -4.2 °C 20.7 °F /  -6.3 °C 1016.8 in /  34428.8 hPa ENE 4.8 mph /  7.7 km/h 6.4 mph /  10.3 km/h 80 % 0.0 in /  0 mm
20:46 28.1 °F /  -2.2 °C 18.8 °F /  -7.3 °C 1012.8 in /  34293.4 hPa East 9.3 mph /  15 km/h 9.3 mph /  15 km/h 57 % 0.0 in /  0 mm
20:51 27.4 °F /  -2.6 °C 18.9 °F /  -7.3 °C 1012.8 in /  34293.4 hPa SE 9.3 mph /  15 km/h 9.3 mph /  15 km/h 60 % 0.0 in /  0 mm
20:55 24.4 °F /  -4.2 °C 20.7 °F /  -6.3 °C 1016.8 in /  34428.8 hPa East 3.2 mph /  5.1 km/h 4.8 mph /  7.7 km/h 80 % 0.0 in /  0 mm
20:56 27.1 °F /  -2.7 °C 19.2 °F /  -7.1 °C 1013.8 in /  34327.3 hPa ESE 16.7 mph /  26.9 km/h 16.7 mph /  26.9 km/h 62 % 0.0 in /  0 mm
21:01 26.6 °F /  -3 °C 19.5 °F /  -6.9 °C 1013.8 in /  34327.3 hPa ESE 14.8 mph /  23.8 km/h 14.8 mph /  23.8 km/h 65 % 0.0 in /  0 mm
21:05 24.4 °F /  -4.2 °C 20.7 °F /  -6.3 °C 1016.8 in /  34428.8 hPa East 4.8 mph /  7.7 km/h 4.8 mph /  7.7 km/h 80 % 0.0 in /  0 mm
21:06 26.5 °F /  -3.1 °C 19.6 °F /  -6.9 °C 1013.8 in /  34327.3 hPa ESE 13.0 mph /  20.9 km/h 13.0 mph /  20.9 km/h 66 % 0.0 in /  0 mm
21:11 26.4 °F /  -3.1 °C 20.0 °F /  -6.7 °C 1013.8 in /  34327.3 hPa ESE 16.7 mph /  26.9 km/h 16.7 mph /  26.9 km/h 68 % 0.0 in /  0 mm
21:15 24.3 °F /  -4.3 °C 20.6 °F /  -6.3 °C 1015.8 in /  34395 hPa East 4.8 mph /  7.7 km/h 4.8 mph /  7.7 km/h 80 % 0.0 in /  0 mm
21:16 26.2 °F /  -3.2 °C 19.8 °F /  -6.8 °C 1013.8 in /  34327.3 hPa SSE 11.1 mph /  17.9 km/h 11.1 mph /  17.9 km/h 68 % 0.0 in /  0 mm
21:21 26.0 °F /  -3.3 °C 19.9 °F /  -6.7 °C 1013.8 in /  34327.3 hPa ENE 11.1 mph /  17.9 km/h 11.1 mph /  17.9 km/h 69 % 0.0 in /  0 mm
21:25 24.3 °F /  -4.3 °C 20.6 °F /  -6.3 °C 1015.8 in /  34395 hPa East 4.8 mph /  7.7 km/h 8.0 mph /  12.9 km/h 80 % 0.0 in /  0 mm
21:26 25.8 °F /  -3.4 °C 19.9 °F /  -6.7 °C 1013.8 in /  34327.3 hPa ENE 9.3 mph /  15 km/h 9.3 mph /  15 km/h 70 % 0.0 in /  0 mm
21:31 25.7 °F /  -3.5 °C 20.1 °F /  -6.6 °C 1013.8 in /  34327.3 hPa SE 9.7 mph /  15.6 km/h 9.7 mph /  15.6 km/h 71 % 0.0 in /  0 mm
21:35 24.2 °F /  -4.3 °C 20.6 °F /  -6.3 °C 1015.8 in /  34395 hPa East 4.8 mph /  7.7 km/h 6.4 mph /  10.3 km/h 80 % 0.0 in /  0 mm
21:36 25.7 °F /  -3.5 °C 20.1 °F /  -6.6 °C 1013.8 in /  34327.3 hPa ESE 9.3 mph /  15 km/h 9.3 mph /  15 km/h 71 % 0.0 in /  0 mm
21:41 25.7 °F /  -3.5 °C 20.1 °F /  -6.6 °C 1014.8 in /  34361.1 hPa ESE 9.3 mph /  15 km/h 9.3 mph /  15 km/h 71 % 0.0 in /  0 mm
21:45 24.2 °F /  -4.3 °C 20.7 °F /  -6.3 °C 1015.8 in /  34395 hPa East 3.2 mph /  5.1 km/h 6.4 mph /  10.3 km/h 81 % 0.0 in /  0 mm
21:46 25.7 °F /  -3.5 °C 20.1 °F /  -6.6 °C 1014.8 in /  34361.1 hPa ENE 7.4 mph /  11.9 km/h 7.4 mph /  11.9 km/h 71 % 0.0 in /  0 mm
21:51 25.7 °F /  -3.5 °C 20.1 °F /  -6.6 °C 1014.8 in /  34361.1 hPa East 9.3 mph /  15 km/h 9.3 mph /  15 km/h 71 % 0.0 in /  0 mm
21:55 24.1 °F /  -4.4 °C 20.6 °F /  -6.3 °C 1015.8 in /  34395 hPa ENE 3.2 mph /  5.1 km/h 4.8 mph /  7.7 km/h 81 % 0.0 in /  0 mm
21:56 25.6 °F /  -3.6 °C 19.9 °F /  -6.7 °C 1014.8 in /  34361.1 hPa NNW 3.7 mph /  6 km/h 3.7 mph /  6 km/h 71 % 0.0 in /  0 mm
22:01 25.6 °F /  -3.6 °C 19.9 °F /  -6.7 °C 1014.8 in /  34361.1 hPa ESE 7.4 mph /  11.9 km/h 7.4 mph /  11.9 km/h 71 % 0.0 in /  0 mm
22:05 24.1 °F /  -4.4 °C 20.6 °F /  -6.3 °C 1014.8 in /  34361.1 hPa East 1.6 mph /  2.6 km/h 6.4 mph /  10.3 km/h 81 % 0.0 in /  0 mm
22:06 25.6 °F /  -3.6 °C 19.9 °F /  -6.7 °C 1014.8 in /  34361.1 hPa ESE 5.6 mph /  9 km/h 5.6 mph /  9 km/h 71 % 0.0 in /  0 mm
22:11 25.5 °F /  -3.6 °C 19.8 °F /  -6.8 °C 1015.8 in /  34395 hPa ESE 7.4 mph /  11.9 km/h 7.4 mph /  11.9 km/h 71 % 0.0 in /  0 mm
22:15 24.1 °F /  -4.4 °C 20.6 °F /  -6.3 °C 1015.8 in /  34395 hPa East 3.2 mph /  5.1 km/h 4.8 mph /  7.7 km/h 81 % 0.0 in /  0 mm
22:16 25.4 °F /  -3.7 °C 20.0 °F /  -6.7 °C 1015.8 in /  34395 hPa ENE 9.3 mph /  15 km/h 9.3 mph /  15 km/h 72 % 0.0 in /  0 mm
22:21 25.4 °F /  -3.7 °C 20.0 °F /  -6.7 °C 1015.8 in /  34395 hPa ENE 7.4 mph /  11.9 km/h 7.4 mph /  11.9 km/h 72 % 0.0 in /  0 mm
22:25 24.2 °F /  -4.3 °C 20.7 °F /  -6.3 °C 1015.8 in /  34395 hPa East 3.2 mph /  5.1 km/h 4.8 mph /  7.7 km/h 81 % 0.0 in /  0 mm
22:26 25.4 °F /  -3.7 °C 20.0 °F /  -6.7 °C 1015.8 in /  34395 hPa East 5.6 mph /  9 km/h 5.6 mph /  9 km/h 72 % 0.0 in /  0 mm
22:31 25.3 °F /  -3.7 °C 19.9 °F /  -6.7 °C 1015.8 in /  34395 hPa East 7.4 mph /  11.9 km/h 7.4 mph /  11.9 km/h 72 % 0.0 in /  0 mm
22:35 24.2 °F /  -4.3 °C 20.7 °F /  -6.3 °C 1015.8 in /  34395 hPa East 3.2 mph /  5.1 km/h 3.2 mph /  5.1 km/h 81 % 0.0 in /  0 mm
22:36 25.2 °F /  -3.8 °C 19.8 °F /  -6.8 °C 1015.8 in /  34395 hPa East 5.8 mph /  9.3 km/h 5.8 mph /  9.3 km/h 72 % 0.0 in /  0 mm
22:41 25.1 °F /  -3.8 °C 19.7 °F /  -6.8 °C 1015.8 in /  34395 hPa ESE 3.7 mph /  6 km/h 3.7 mph /  6 km/h 72 % 0.0 in /  0 mm
22:45 24.2 °F /  -4.3 °C 20.6 °F /  -6.3 °C 1015.8 in /  34395 hPa ESE 1.6 mph /  2.6 km/h 4.8 mph /  7.7 km/h 80 % 0.0 in /  0 mm
22:46 25.1 °F /  -3.8 °C 19.7 °F /  -6.8 °C 1015.8 in /  34395 hPa ESE 5.6 mph /  9 km/h 5.6 mph /  9 km/h 72 % 0.0 in /  0 mm
22:51 25.1 °F /  -3.8 °C 19.7 °F /  -6.8 °C 1015.8 in /  34395 hPa ESE 3.2 mph /  5.1 km/h 3.2 mph /  5.1 km/h 72 % 0.0 in /  0 mm
22:55 24.2 °F /  -4.3 °C 20.6 °F /  -6.3 °C 1015.8 in /  34395 hPa Calm   6.4 mph /  10.3 km/h 80 % 0.0 in /  0 mm
22:56 25.0 °F /  -3.9 °C 19.4 °F /  -7 °C 1015.8 in /  34395 hPa ESE 2.3 mph /  3.7 km/h 2.3 mph /  3.7 km/h 71 % 0.0 in /  0 mm
23:01 25.0 °F /  -3.9 °C 19.6 °F /  -6.9 °C 1015.8 in /  34395 hPa ESE 3.7 mph /  6 km/h 3.7 mph /  6 km/h 72 % 0.0 in /  0 mm
23:05 24.2 °F /  -4.3 °C 20.6 °F /  -6.3 °C 1015.8 in /  34395 hPa Calm   1.6 mph /  2.6 km/h 80 % 0.0 in /  0 mm
23:06 24.9 °F /  -3.9 °C 19.7 °F /  -6.8 °C 1015.8 in /  34395 hPa East 3.9 mph /  6.3 km/h 3.9 mph /  6.3 km/h 73 % 0.0 in /  0 mm
23:11 24.9 °F /  -3.9 °C 20.2 °F /  -6.6 °C 1014.8 in /  34361.1 hPa ESE 10.0 mph /  16.1 km/h 10.0 mph /  16.1 km/h 75 % 0.0 in /  0 mm
23:15 24.2 °F /  -4.3 °C 20.6 °F /  -6.3 °C 1015.8 in /  34395 hPa Calm   3.2 mph /  5.1 km/h 80 % 0.0 in /  0 mm
23:16 24.8 °F /  -4 °C 20.3 °F /  -6.5 °C 1014.8 in /  34361.1 hPa ENE 6.4 mph /  10.3 km/h 6.4 mph /  10.3 km/h 76 % 0.0 in /  0 mm
23:21 24.8 °F /  -4 °C 20.3 °F /  -6.5 °C 1014.8 in /  34361.1 hPa ENE 7.4 mph /  11.9 km/h 7.4 mph /  11.9 km/h 76 % 0.0 in /  0 mm
23:25 24.2 °F /  -4.3 °C 20.6 °F /  -6.3 °C 1015.8 in /  34395 hPa East 1.6 mph /  2.6 km/h 3.2 mph /  5.1 km/h 80 % 0.0 in /  0 mm
23:26 24.7 °F /  -4.1 °C 20.2 °F /  -6.6 °C 1015.8 in /  34395 hPa ESE 7.6 mph /  12.2 km/h 7.6 mph /  12.2 km/h 76 % 0.0 in /  0 mm
23:31 24.6 °F /  -4.1 °C 20.3 °F /  -6.5 °C 1015.8 in /  34395 hPa NNE 5.6 mph /  9 km/h 5.6 mph /  9 km/h 77 % 0.0 in /  0 mm
23:35 24.2 °F /  -4.3 °C 20.6 °F /  -6.3 °C 1015.8 in /  34395 hPa East 4.8 mph /  7.7 km/h 4.8 mph /  7.7 km/h 80 % 0.0 in /  0 mm
23:36 24.6 °F /  -4.1 °C 20.3 °F /  -6.5 °C 1015.8 in /  34395 hPa East 3.7 mph /  6 km/h 3.7 mph /  6 km/h 77 % 0.0 in /  0 mm
23:41 24.6 °F /  -4.1 °C 20.3 °F /  -6.5 °C 1016.8 in /  34428.8 hPa East 3.7 mph /  6 km/h 3.7 mph /  6 km/h 77 % 0.0 in /  0 mm
23:45 24.1 °F /  -4.4 °C 20.4 °F /  -6.4 °C 1015.8 in /  34395 hPa East 3.2 mph /  5.1 km/h 4.8 mph /  7.7 km/h 80 % 0.0 in /  0 mm
23:46 24.5 °F /  -4.2 °C 20.4 °F /  -6.4 °C 1016.8 in /  34428.8 hPa ESE 9.3 mph /  15 km/h 9.3 mph /  15 km/h 78 % 0.0 in /  0 mm
23:51 24.5 °F /  -4.2 °C 20.4 °F /  -6.4 °C 1016.8 in /  34428.8 hPa NE 5.6 mph /  9 km/h 5.6 mph /  9 km/h 78 % 0.0 in /  0 mm
23:55 24.2 °F /  -4.3 °C 20.3 °F /  -6.5 °C 1015.8 in /  34395 hPa Calm   3.2 mph /  5.1 km/h 79 % 0.0 in /  0 mm
23:56 24.5 °F /  -4.2 °C 20.4 °F /  -6.4 °C 1016.8 in /  34428.8 hPa NE 6.4 mph /  10.3 km/h 6.4 mph /  10.3 km/h 78 % 0.0 in /  0 mm
Meteo Sesrovires
Elogis d' Weather Underground - 1.5 mb

Guio original per  Jim McMurry - jmcmurry@mwt.net Adaptat per a la plantilla per  Wim van der Kuil - Leuven-Template.eu

Trobareu la nostra informacio del temps tambe a:

Weather Underground

AWEKAS